createdAt,value
2017-04-03T00:00:30.362Z,1018.06
2017-04-03T00:01:31.663Z,1018.08
2017-04-03T00:02:32.925Z,1018.05
2017-04-03T00:03:34.208Z,1018.02
2017-04-03T00:04:35.433Z,1018.03
2017-04-03T00:05:36.656Z,1018
2017-04-03T00:06:38.019Z,1018.07
2017-04-03T00:07:39.273Z,1018.04
2017-04-03T00:08:40.494Z,1018.04
2017-04-03T00:09:41.754Z,1018.02
2017-04-03T00:10:42.995Z,1018.02
2017-04-03T00:11:44.291Z,1018.05
2017-04-03T00:12:45.553Z,1018
2017-04-03T00:13:46.800Z,1018.02
2017-04-03T00:14:48.029Z,1018.03
2017-04-03T00:15:49.286Z,1018.02
2017-04-03T00:16:50.577Z,1018.04
2017-04-03T00:17:51.919Z,1018.04
2017-04-03T00:18:53.148Z,1018.02
2017-04-03T00:19:54.379Z,1018.02
2017-04-03T00:20:55.820Z,1018.02
2017-04-03T00:21:57.060Z,1018.03
2017-04-03T00:22:58.441Z,1018.01
2017-04-03T00:23:59.793Z,1018.04
2017-04-03T00:25:01.139Z,1018.04
2017-04-03T00:26:02.329Z,1018.03
2017-04-03T00:27:03.579Z,1018.05
2017-04-03T00:28:04.843Z,1018.01
2017-04-03T00:29:06.068Z,1018.05
2017-04-03T00:30:07.308Z,1018.04
2017-04-03T00:31:08.544Z,1018.07
2017-04-03T00:32:09.789Z,1018.04
2017-04-03T00:33:11.029Z,1018.07
2017-04-03T00:34:12.285Z,1018.06
2017-04-03T00:35:13.540Z,1018.06
2017-04-03T00:36:14.775Z,1018.05
2017-04-03T00:37:16.084Z,1018.07
2017-04-03T00:38:17.311Z,1018.05
2017-04-03T00:39:18.548Z,1018.05
2017-04-03T00:40:19.797Z,1018.06
2017-04-03T00:41:21.036Z,1018.05
2017-04-03T00:42:22.287Z,1018.06
2017-04-03T00:43:23.547Z,1018.08
2017-04-03T00:44:24.788Z,1018.11
2017-04-03T00:45:26.004Z,1018.13
2017-04-03T00:46:27.255Z,1018.07
2017-04-03T00:47:28.477Z,1018.06
2017-04-03T00:48:29.754Z,1018.11
2017-04-03T00:49:30.979Z,1018.12
2017-04-03T00:50:32.238Z,1018.09
2017-04-03T00:51:33.517Z,1018.08
2017-04-03T00:52:34.761Z,1018.11
2017-04-03T00:53:36.017Z,1018.07
2017-04-03T00:54:37.269Z,1018.08
2017-04-03T00:55:38.745Z,1018.08
2017-04-03T00:56:40.019Z,1018.04
2017-04-03T00:57:41.297Z,1018.06
2017-04-03T00:58:42.551Z,1018.03
2017-04-03T00:59:43.786Z,1018.08
2017-04-03T01:00:45.042Z,1018.06
2017-04-03T01:01:46.275Z,1018.01
2017-04-03T01:02:47.581Z,1017.99
2017-04-03T01:03:48.845Z,1018.01
2017-04-03T01:04:50.280Z,1018.04
2017-04-03T01:05:51.528Z,1018.05
2017-04-03T01:06:52.765Z,1018.08
2017-04-03T01:07:54.239Z,1018.1
2017-04-03T01:08:55.482Z,1018.09
2017-04-03T01:09:56.723Z,1018.12
2017-04-03T01:10:58.009Z,1018.11
2017-04-03T01:11:59.227Z,1018.13
2017-04-03T01:13:00.477Z,1018.11
2017-04-03T01:14:01.781Z,1018.19
2017-04-03T01:15:03.021Z,1018.16
2017-04-03T01:16:04.263Z,1018.17
2017-04-03T01:17:05.526Z,1018.11
2017-04-03T01:18:06.800Z,1018.19
2017-04-03T01:19:08.098Z,1018.19
2017-04-03T01:20:09.341Z,1018.16
2017-04-03T01:21:10.571Z,1018.2
2017-04-03T01:22:11.819Z,1018.22
2017-04-03T01:23:13.056Z,1018.19
2017-04-03T01:24:14.430Z,1018.19
2017-04-03T01:25:15.690Z,1018.19
2017-04-03T01:26:16.910Z,1018.22
2017-04-03T01:27:18.172Z,1018.21
2017-04-03T01:28:19.502Z,1018.18
2017-04-03T01:29:20.758Z,1018.15
2017-04-03T01:30:21.987Z,1018.15
2017-04-03T01:31:23.232Z,1018.19
2017-04-03T01:32:24.588Z,1018.19
2017-04-03T01:33:25.825Z,1018.22
2017-04-03T01:34:27.067Z,1018.21
2017-04-03T01:35:28.314Z,1018.21
2017-04-03T01:36:29.554Z,1018.21
2017-04-03T01:37:30.833Z,1018.22
2017-04-03T01:38:32.250Z,1018.24
2017-04-03T01:39:33.461Z,1018.23
2017-04-03T01:40:34.702Z,1018.24
2017-04-03T01:41:35.954Z,1018.24
2017-04-03T01:42:37.213Z,1018.24
2017-04-03T01:43:38.455Z,1018.23
2017-04-03T01:44:39.728Z,1018.25
2017-04-03T01:45:40.985Z,1018.27
2017-04-03T01:46:42.223Z,1018.27
2017-04-03T01:47:43.507Z,1018.26
2017-04-03T01:48:44.752Z,1018.27
2017-04-03T01:49:46.025Z,1018.29
2017-04-03T01:50:47.617Z,1018.3
2017-04-03T01:51:48.751Z,1018.27
2017-04-03T01:52:49.988Z,1018.29
2017-04-03T01:53:51.224Z,1018.28
2017-04-03T01:54:52.666Z,1018.33
2017-04-03T01:55:54.039Z,1018.27
2017-04-03T01:56:55.277Z,1018.29
2017-04-03T01:57:56.519Z,1018.32
2017-04-03T01:58:57.758Z,1018.32
2017-04-03T01:59:59.005Z,1018.34
2017-04-03T02:01:00.244Z,1018.3
2017-04-03T02:02:01.535Z,1018.32
2017-04-03T02:03:02.790Z,1018.31
2017-04-03T02:04:04.072Z,1018.29
2017-04-03T02:05:05.291Z,1018.28
2017-04-03T02:06:06.554Z,1018.3
2017-04-03T02:07:07.857Z,1018.3
2017-04-03T02:08:09.067Z,1018.3
2017-04-03T02:09:10.357Z,1018.32
2017-04-03T02:10:11.651Z,1018.32
2017-04-03T02:11:12.878Z,1018.3
2017-04-03T02:12:14.115Z,1018.34
2017-04-03T02:13:15.352Z,1018.33
2017-04-03T02:14:16.596Z,1018.4
2017-04-03T02:15:17.932Z,1018.37
2017-04-03T02:16:19.154Z,1018.41
2017-04-03T02:17:20.397Z,1018.41
2017-04-03T02:18:21.654Z,1018.45
2017-04-03T02:19:22.889Z,1018.39
2017-04-03T02:20:24.139Z,1018.42
2017-04-03T02:21:25.457Z,1018.43
2017-04-03T02:22:26.708Z,1018.45
2017-04-03T02:23:27.957Z,1018.46
2017-04-03T02:24:29.163Z,1018.47
2017-04-03T02:25:30.403Z,1018.46
2017-04-03T02:26:31.800Z,1018.46
2017-04-03T02:27:32.938Z,1018.53
2017-04-03T02:28:34.250Z,1018.51
2017-04-03T02:29:35.526Z,1018.57
2017-04-03T02:30:36.767Z,1018.57
2017-04-03T02:31:37.997Z,1018.59
2017-04-03T02:32:39.267Z,1018.62
2017-04-03T02:33:40.585Z,1018.59
2017-04-03T02:34:41.858Z,1018.59
2017-04-03T02:35:43.107Z,1018.63
2017-04-03T02:36:44.342Z,1018.61
2017-04-03T02:37:45.609Z,1018.61
2017-04-03T02:38:46.904Z,1018.62
2017-04-03T02:39:48.203Z,1018.59
2017-04-03T02:40:49.450Z,1018.57
2017-04-03T02:41:50.689Z,1018.57
2017-04-03T02:42:51.967Z,1018.6
2017-04-03T02:43:53.183Z,1018.61
2017-04-03T02:44:54.571Z,1018.63
2017-04-03T02:45:55.818Z,1018.62
2017-04-03T02:46:57.059Z,1018.65
2017-04-03T02:47:58.306Z,1018.63
2017-04-03T02:48:59.606Z,1018.68
2017-04-03T02:50:00.832Z,1018.66
2017-04-03T02:51:02.075Z,1018.68
2017-04-03T02:52:03.309Z,1018.62
2017-04-03T02:53:04.670Z,1018.65
2017-04-03T02:54:05.920Z,1018.63
2017-04-03T02:55:07.174Z,1018.65
2017-04-03T02:56:08.428Z,1018.67
2017-04-03T02:57:09.629Z,1018.66
2017-04-03T02:58:10.898Z,1018.64
2017-04-03T02:59:12.195Z,1018.7
2017-04-03T03:00:13.434Z,1018.65
2017-04-03T03:01:14.735Z,1018.68
2017-04-03T03:02:15.958Z,1018.67
2017-04-03T03:03:17.211Z,1018.65
2017-04-03T03:04:18.450Z,1018.69
2017-04-03T03:05:19.705Z,1018.7
2017-04-03T03:06:20.942Z,1018.74
2017-04-03T03:07:22.223Z,1018.72
2017-04-03T03:08:23.458Z,1018.72
2017-04-03T03:09:24.702Z,1018.76
2017-04-03T03:10:25.944Z,1018.75
2017-04-03T03:11:27.202Z,1018.75
2017-04-03T03:12:28.420Z,1018.76
2017-04-03T03:13:29.702Z,1018.81
2017-04-03T03:14:30.963Z,1018.78
2017-04-03T03:15:32.215Z,1018.79
2017-04-03T03:16:33.449Z,1018.78
2017-04-03T03:17:34.778Z,1018.74
2017-04-03T03:18:36.115Z,1018.79
2017-04-03T03:19:37.471Z,1018.78
2017-04-03T03:20:38.687Z,1018.77
2017-04-03T03:21:39.927Z,1018.79
2017-04-03T03:22:41.161Z,1018.77
2017-04-03T03:23:42.458Z,1018.79
2017-04-03T03:24:43.699Z,1018.77
2017-04-03T03:25:44.954Z,1018.84
2017-04-03T03:26:46.174Z,1018.84
2017-04-03T03:27:47.454Z,1018.84
2017-04-03T03:28:48.715Z,1018.83
2017-04-03T03:29:49.950Z,1018.84
2017-04-03T03:30:51.194Z,1018.83
2017-04-03T03:31:52.567Z,1018.84
2017-04-03T03:32:53.785Z,1018.85
2017-04-03T03:33:55.026Z,1018.84
2017-04-03T03:34:56.269Z,1018.83
2017-04-03T03:35:57.506Z,1018.81
2017-04-03T03:36:58.737Z,1018.79
2017-04-03T03:38:00.084Z,1018.79
2017-04-03T03:39:01.365Z,1018.8
2017-04-03T03:40:02.614Z,1018.74
2017-04-03T03:41:03.837Z,1018.78
2017-04-03T03:42:05.090Z,1018.77
2017-04-03T03:43:06.445Z,1018.81
2017-04-03T03:44:07.770Z,1018.8
2017-04-03T03:45:09.103Z,1018.82
2017-04-03T03:46:10.319Z,1018.82
2017-04-03T03:47:11.559Z,1018.81
2017-04-03T03:48:12.799Z,1018.82
2017-04-03T03:49:14.047Z,1018.79
2017-04-03T03:50:15.261Z,1018.77
2017-04-03T03:51:16.523Z,1018.77
2017-04-03T03:52:17.725Z,1018.78
2017-04-03T03:53:18.962Z,1018.76
2017-04-03T03:54:20.203Z,1018.8
2017-04-03T03:55:21.444Z,1018.78
2017-04-03T03:56:22.694Z,1018.78
2017-04-03T03:57:24.013Z,1018.82
2017-04-03T03:58:25.315Z,1018.81
2017-04-03T03:59:26.500Z,1018.83
2017-04-03T04:00:27.735Z,1018.83
2017-04-03T04:01:29.010Z,1018.85
2017-04-03T04:02:30.249Z,1018.79
2017-04-03T04:03:31.686Z,1018.81
2017-04-03T04:04:32.926Z,1018.77
2017-04-03T04:05:34.191Z,1018.76
2017-04-03T04:06:35.431Z,1018.78
2017-04-03T04:07:36.681Z,1018.75
2017-04-03T04:08:38.019Z,1018.8
2017-04-03T04:09:39.366Z,1018.79
2017-04-03T04:10:40.641Z,1018.78
2017-04-03T04:11:41.848Z,1018.79
2017-04-03T04:12:43.117Z,1018.77
2017-04-03T04:13:44.349Z,1018.8
2017-04-03T04:14:45.630Z,1018.78
2017-04-03T04:15:46.868Z,1018.84
2017-04-03T04:16:48.116Z,1018.81
2017-04-03T04:17:49.354Z,1018.83
2017-04-03T04:18:50.595Z,1018.83
2017-04-03T04:19:51.826Z,1018.86
2017-04-03T04:20:53.106Z,1018.83
2017-04-03T04:21:54.340Z,1018.84
2017-04-03T04:22:55.673Z,1018.87
2017-04-03T04:23:56.904Z,1018.89
2017-04-03T04:24:58.145Z,1018.83
2017-04-03T04:25:59.388Z,1018.9
2017-04-03T04:27:00.629Z,1018.88
2017-04-03T04:28:01.987Z,1018.92
2017-04-03T04:29:03.225Z,1018.9
2017-04-03T04:30:04.448Z,1018.88
2017-04-03T04:31:05.699Z,1018.96
2017-04-03T04:32:06.942Z,1018.97
2017-04-03T04:33:08.193Z,1018.97
2017-04-03T04:34:09.425Z,1018.99
2017-04-03T04:35:10.719Z,1019.03
2017-04-03T04:36:11.992Z,1019.06
2017-04-03T04:37:13.181Z,1019.03
2017-04-03T04:38:14.419Z,1019.01
2017-04-03T04:39:15.659Z,1019.03
2017-04-03T04:40:16.902Z,1019.03
2017-04-03T04:41:18.174Z,1019.04
2017-04-03T04:42:19.436Z,1019.09
2017-04-03T04:43:20.676Z,1019.09
2017-04-03T04:44:21.941Z,1019.13
2017-04-03T04:45:23.154Z,1019.12
2017-04-03T04:46:24.511Z,1019.11
2017-04-03T04:47:25.807Z,1019.17
2017-04-03T04:48:27.173Z,1019.15
2017-04-03T04:49:28.408Z,1019.19
2017-04-03T04:50:29.650Z,1019.18
2017-04-03T04:51:30.888Z,1019.22
2017-04-03T04:52:32.129Z,1019.19
2017-04-03T04:53:33.394Z,1019.23
2017-04-03T04:54:34.620Z,1019.2
2017-04-03T04:55:35.868Z,1019.25
2017-04-03T04:56:37.087Z,1019.26
2017-04-03T04:57:38.346Z,1019.24
2017-04-03T04:58:39.598Z,1019.25
2017-04-03T04:59:40.824Z,1019.26
2017-04-03T05:00:42.072Z,1019.23
2017-04-03T05:01:43.316Z,1019.27
2017-04-03T05:02:44.574Z,1019.31
2017-04-03T05:03:45.791Z,1019.25
2017-04-03T05:04:47.028Z,1019.3
2017-04-03T05:05:48.300Z,1019.29
2017-04-03T05:06:49.560Z,1019.28
2017-04-03T05:07:50.778Z,1019.31
2017-04-03T05:08:52.038Z,1019.32
2017-04-03T05:09:53.264Z,1019.31
2017-04-03T05:10:54.505Z,1019.32
2017-04-03T05:11:55.770Z,1019.39
2017-04-03T05:12:57.044Z,1019.38
2017-04-03T05:13:58.298Z,1019.43
2017-04-03T05:14:59.611Z,1019.41
2017-04-03T05:16:00.850Z,1019.43
2017-04-03T05:17:02.088Z,1019.46
2017-04-03T05:18:03.352Z,1019.42
2017-04-03T05:19:04.625Z,1019.44
2017-04-03T05:20:06.027Z,1019.44
2017-04-03T05:21:07.265Z,1019.46
2017-04-03T05:22:08.503Z,1019.47
2017-04-03T05:23:09.743Z,1019.48
2017-04-03T05:24:11.012Z,1019.48
2017-04-03T05:25:12.390Z,1019.51
2017-04-03T05:26:13.619Z,1019.48
2017-04-03T05:27:14.858Z,1019.5
2017-04-03T05:28:16.076Z,1019.49
2017-04-03T05:29:17.313Z,1019.45
2017-04-03T05:30:18.631Z,1019.47
2017-04-03T05:31:19.856Z,1019.49
2017-04-03T05:32:21.108Z,1019.52
2017-04-03T05:33:22.327Z,1019.55
2017-04-03T05:34:23.619Z,1019.56
2017-04-03T05:35:24.812Z,1019.56
2017-04-03T05:36:26.064Z,1019.56
2017-04-03T05:37:27.301Z,1019.58
2017-04-03T05:38:28.563Z,1019.58
2017-04-03T05:39:29.816Z,1019.64
2017-04-03T05:40:31.055Z,1019.69
2017-04-03T05:41:32.302Z,1019.65
2017-04-03T05:42:33.581Z,1019.64
2017-04-03T05:43:34.858Z,1019.68
2017-04-03T05:44:36.179Z,1019.71
2017-04-03T05:45:37.527Z,1019.73
2017-04-03T05:46:38.763Z,1019.76
2017-04-03T05:47:40.018Z,1019.77
2017-04-03T05:48:41.247Z,1019.81
2017-04-03T05:49:42.515Z,1019.81
2017-04-03T05:50:43.912Z,1019.8
2017-04-03T05:51:45.149Z,1019.81
2017-04-03T05:52:46.393Z,1019.82
2017-04-03T05:53:47.752Z,1019.82
2017-04-03T05:54:48.966Z,1019.85
2017-04-03T05:55:50.211Z,1019.88
2017-04-03T05:56:51.451Z,1019.91
2017-04-03T05:57:52.719Z,1019.9
2017-04-03T05:58:54.015Z,1019.94
2017-04-03T05:59:55.246Z,1019.96
2017-04-03T06:00:56.487Z,1019.97
2017-04-03T06:01:57.725Z,1019.94
2017-04-03T06:02:58.994Z,1019.97
2017-04-03T06:04:00.234Z,1019.95
2017-04-03T06:05:01.540Z,1019.99
2017-04-03T06:06:02.793Z,1020
2017-04-03T06:07:04.039Z,1020.01
2017-04-03T06:08:05.303Z,1019.98
2017-04-03T06:09:06.509Z,1019.98
2017-04-03T06:10:07.759Z,1019.97
2017-04-03T06:11:08.998Z,1019.97
2017-04-03T06:12:10.245Z,1020.02
2017-04-03T06:13:11.484Z,1020.03
2017-04-03T06:14:12.720Z,1020
2017-04-03T06:15:13.967Z,1020.03
2017-04-03T06:16:15.208Z,1019.99
2017-04-03T06:17:16.564Z,1020.05
2017-04-03T06:18:17.831Z,1020.05
2017-04-03T06:19:19.048Z,1020.03
2017-04-03T06:20:20.277Z,1020.03
2017-04-03T06:21:21.499Z,1020
2017-04-03T06:22:22.839Z,1020.06
2017-04-03T06:23:24.178Z,1020.07
2017-04-03T06:24:25.441Z,1020
2017-04-03T06:25:26.702Z,1020.02
2017-04-03T06:26:27.943Z,1019.99
2017-04-03T06:27:29.183Z,1020
2017-04-03T06:28:30.428Z,1019.97
2017-04-03T06:29:31.731Z,1019.99
2017-04-03T06:30:32.961Z,1019.99
2017-04-03T06:31:34.215Z,1020.01
2017-04-03T06:32:35.450Z,1019.98
2017-04-03T06:33:36.842Z,1020.05
2017-04-03T06:34:38.100Z,1020.07
2017-04-03T06:35:39.413Z,1020.04
2017-04-03T06:36:40.706Z,1020.07
2017-04-03T06:37:41.963Z,1020.03
2017-04-03T06:38:43.196Z,1020.08
2017-04-03T06:39:44.443Z,1020.04
2017-04-03T06:40:45.826Z,1020.05
2017-04-03T06:41:47.046Z,1020.01
2017-04-03T06:42:48.296Z,1020.07
2017-04-03T06:43:49.537Z,1020
2017-04-03T06:44:50.805Z,1020.02
2017-04-03T06:45:52.034Z,1020.02
2017-04-03T06:46:53.288Z,1020.04
2017-04-03T06:47:54.647Z,1020.02
2017-04-03T06:48:55.952Z,1020.07
2017-04-03T06:49:57.187Z,1020.1
2017-04-03T06:50:58.430Z,1020.08
2017-04-03T06:51:59.667Z,1020.08
2017-04-03T06:53:01.012Z,1020.1
2017-04-03T06:54:02.261Z,1020.17
2017-04-03T06:55:03.555Z,1020.15
2017-04-03T06:56:04.810Z,1020.15
2017-04-03T06:57:06.046Z,1020.17
2017-04-03T06:58:07.294Z,1020.2
2017-04-03T06:59:08.600Z,1020.2
2017-04-03T07:00:09.899Z,1020.16
2017-04-03T07:01:11.085Z,1020.21
2017-04-03T07:02:12.316Z,1020.14
2017-04-03T07:03:13.557Z,1020.23
2017-04-03T07:04:14.809Z,1020.23
2017-04-03T07:05:16.161Z,1020.22
2017-04-03T07:06:17.545Z,1020.24
2017-04-03T07:07:18.791Z,1020.21
2017-04-03T07:08:20.022Z,1020.27
2017-04-03T07:09:21.262Z,1020.27
2017-04-03T07:10:22.500Z,1020.25
2017-04-03T07:11:23.766Z,1020.25
2017-04-03T07:12:25.012Z,1020.3
2017-04-03T07:13:26.378Z,1020.33
2017-04-03T07:14:27.619Z,1020.32
2017-04-03T07:15:28.857Z,1020.34
2017-04-03T07:16:30.108Z,1020.33
2017-04-03T07:17:31.353Z,1020.31
2017-04-03T07:18:32.685Z,1020.33
2017-04-03T07:19:33.939Z,1020.31
2017-04-03T07:20:35.192Z,1020.29
2017-04-03T07:21:36.447Z,1020.3
2017-04-03T07:22:37.689Z,1020.31
2017-04-03T07:23:39.013Z,1020.3
2017-04-03T07:24:40.257Z,1020.32
2017-04-03T07:25:41.480Z,1020.33
2017-04-03T07:26:42.720Z,1020.36
2017-04-03T07:27:43.978Z,1020.36
2017-04-03T07:28:45.428Z,1020.36
2017-04-03T07:29:46.655Z,1020.41
2017-04-03T07:30:47.986Z,1020.35
2017-04-03T07:31:49.247Z,1020.42
2017-04-03T07:32:50.483Z,1020.41
2017-04-03T07:33:51.726Z,1020.42
2017-04-03T07:34:52.963Z,1020.45
2017-04-03T07:35:54.284Z,1020.49
2017-04-03T07:36:55.581Z,1020.45
2017-04-03T07:37:56.799Z,1020.47
2017-04-03T07:38:58.071Z,1020.48
2017-04-03T07:39:59.329Z,1020.49
2017-04-03T07:41:00.574Z,1020.5
2017-04-03T07:42:01.934Z,1020.53
2017-04-03T07:43:03.062Z,1020.56
2017-04-03T07:44:04.540Z,1020.56
2017-04-03T07:45:05.791Z,1020.57
2017-04-03T07:46:07.048Z,1020.56
2017-04-03T07:47:08.283Z,1020.6
2017-04-03T07:48:09.531Z,1020.55
2017-04-03T07:49:10.781Z,1020.6
2017-04-03T07:50:11.990Z,1020.63
2017-04-03T07:51:13.237Z,1020.63
2017-04-03T07:52:14.478Z,1020.63
2017-04-03T07:53:15.739Z,1020.65
2017-04-03T07:54:17.154Z,1020.63
2017-04-03T07:55:18.413Z,1020.63
2017-04-03T07:56:19.652Z,1020.69
2017-04-03T07:57:20.910Z,1020.65
2017-04-03T07:58:22.154Z,1020.64
2017-04-03T07:59:23.414Z,1020.66
2017-04-03T08:00:24.674Z,1020.66
2017-04-03T08:01:25.929Z,1020.68
2017-04-03T08:02:27.370Z,1020.66
2017-04-03T08:03:28.604Z,1020.66
2017-04-03T08:04:29.837Z,1020.65
2017-04-03T08:05:31.085Z,1020.65
2017-04-03T08:06:32.376Z,1020.61
2017-04-03T08:07:33.624Z,1020.63
2017-04-03T08:08:34.861Z,1020.63
2017-04-03T08:09:36.152Z,1020.65
2017-04-03T08:10:37.403Z,1020.64
2017-04-03T08:11:38.890Z,1020.68
2017-04-03T08:12:40.183Z,1020.68
2017-04-03T08:13:41.424Z,1020.68
2017-04-03T08:14:42.709Z,1020.72
2017-04-03T08:15:43.965Z,1020.66
2017-04-03T08:16:45.190Z,1020.7
2017-04-03T08:17:46.490Z,1020.7
2017-04-03T08:18:47.821Z,1020.68
2017-04-03T08:19:49.000Z,1020.73
2017-04-03T08:20:50.273Z,1020.7
2017-04-03T08:21:51.500Z,1020.72
2017-04-03T08:22:52.743Z,1020.7
2017-04-03T08:23:53.979Z,1020.69
2017-04-03T08:24:55.210Z,1020.72
2017-04-03T08:25:56.452Z,1020.74
2017-04-03T08:26:57.707Z,1020.71
2017-04-03T08:27:58.947Z,1020.75
2017-04-03T08:29:00.191Z,1020.71
2017-04-03T08:30:01.431Z,1020.74
2017-04-03T08:31:02.671Z,1020.77
2017-04-03T08:32:03.928Z,1020.76
2017-04-03T08:33:05.167Z,1020.79
2017-04-03T08:34:06.460Z,1020.8
2017-04-03T08:35:07.716Z,1020.79
2017-04-03T08:36:08.955Z,1020.82
2017-04-03T08:37:10.202Z,1020.78
2017-04-03T08:38:11.440Z,1020.79
2017-04-03T08:39:12.693Z,1020.8
2017-04-03T08:40:13.996Z,1020.77
2017-04-03T08:41:15.245Z,1020.75
2017-04-03T08:42:16.488Z,1020.77
2017-04-03T08:43:17.752Z,1020.78
2017-04-03T08:44:19.152Z,1020.74
2017-04-03T08:45:20.450Z,1020.74
2017-04-03T08:46:21.662Z,1020.73
2017-04-03T08:47:22.949Z,1020.77
2017-04-03T08:48:24.190Z,1020.69
2017-04-03T08:49:25.441Z,1020.7
2017-04-03T08:50:26.669Z,1020.74
2017-04-03T08:51:27.959Z,1020.73
2017-04-03T08:52:29.207Z,1020.67
2017-04-03T08:53:30.436Z,1020.73
2017-04-03T08:54:31.688Z,1020.74
2017-04-03T08:55:32.983Z,1020.74
2017-04-03T08:56:34.238Z,1020.77
2017-04-03T08:57:35.486Z,1020.75
2017-04-03T08:58:36.805Z,1020.74
2017-04-03T08:59:38.002Z,1020.71
2017-04-03T09:00:39.254Z,1020.74
2017-04-03T09:01:40.503Z,1020.77
2017-04-03T09:02:41.737Z,1020.76
2017-04-03T09:03:43.086Z,1020.82
2017-04-03T09:04:44.349Z,1020.78
2017-04-03T09:05:45.609Z,1020.8
2017-04-03T09:06:46.843Z,1020.77
2017-04-03T09:07:48.121Z,1020.74
2017-04-03T09:08:49.352Z,1020.76
2017-04-03T09:09:50.594Z,1020.8
2017-04-03T09:10:51.841Z,1020.78
2017-04-03T09:11:53.112Z,1020.78
2017-04-03T09:12:54.349Z,1020.73
2017-04-03T09:13:55.618Z,1020.7
2017-04-03T09:14:56.873Z,1020.73
2017-04-03T09:15:58.140Z,1020.73
2017-04-03T09:16:59.351Z,1020.73
2017-04-03T09:18:00.618Z,1020.69
2017-04-03T09:19:01.903Z,1020.73
2017-04-03T09:20:03.147Z,1020.74
2017-04-03T09:21:04.399Z,1020.74
2017-04-03T09:22:05.628Z,1020.75
2017-04-03T09:23:06.902Z,1020.72
2017-04-03T09:24:08.152Z,1020.74
2017-04-03T09:25:09.419Z,1020.71
2017-04-03T09:26:10.669Z,1020.76
2017-04-03T09:27:11.924Z,1020.74
2017-04-03T09:28:13.189Z,1020.81
2017-04-03T09:29:14.446Z,1020.84
2017-04-03T09:30:15.707Z,1020.78
2017-04-03T09:31:16.976Z,1020.77
2017-04-03T09:32:18.206Z,1020.8
2017-04-03T09:33:19.433Z,1020.79
2017-04-03T09:34:20.692Z,1020.76
2017-04-03T09:35:21.964Z,1020.82
2017-04-03T09:36:23.207Z,1020.83
2017-04-03T09:37:24.513Z,1020.89
2017-04-03T09:38:25.762Z,1021.07
2017-04-03T09:39:27.002Z,1020.91
2017-04-03T09:40:28.252Z,1020.99
2017-04-03T09:41:29.498Z,1020.92
2017-04-03T09:42:30.764Z,1020.86
2017-04-03T09:43:32.056Z,1020.88
2017-04-03T09:44:33.292Z,1020.87
2017-04-03T09:45:34.530Z,1020.93
2017-04-03T09:46:35.778Z,1020.91
2017-04-03T09:47:37.069Z,1020.89
2017-04-03T09:48:38.331Z,1020.88
2017-04-03T09:49:39.603Z,1020.89
2017-04-03T09:50:40.886Z,1020.92
2017-04-03T09:51:42.107Z,1020.93
2017-04-03T09:52:43.349Z,1020.93
2017-04-03T09:53:44.632Z,1020.97
2017-04-03T09:54:45.955Z,1020.94
2017-04-03T09:55:47.201Z,1020.97
2017-04-03T09:56:48.474Z,1021.53
2017-04-03T09:57:49.791Z,1021.45
2017-04-03T09:58:51.013Z,1021.27
2017-04-03T09:59:52.285Z,1021.3
2017-04-03T10:00:53.513Z,1021.39
2017-04-03T10:01:54.789Z,1021.41
2017-04-03T10:02:56.026Z,1020.99
2017-04-03T10:03:57.268Z,1020.99
2017-04-03T10:04:58.529Z,1020.91
2017-04-03T10:05:59.768Z,1021
2017-04-03T10:07:01.125Z,1021.02
2017-04-03T10:08:02.379Z,1020.98
2017-04-03T10:09:03.636Z,1020.93
2017-04-03T10:10:04.883Z,1020.97
2017-04-03T10:11:06.143Z,1020.96
2017-04-03T10:12:07.391Z,1020.9
2017-04-03T10:13:08.653Z,1020.88
2017-04-03T10:14:09.902Z,1020.91
2017-04-03T10:15:11.152Z,1020.96
2017-04-03T10:16:12.396Z,1020.95
2017-04-03T10:17:13.713Z,1020.88
2017-04-03T10:18:14.927Z,1020.92
2017-04-03T10:19:16.299Z,1020.9
2017-04-03T10:20:17.712Z,1020.9
2017-04-03T10:21:18.875Z,1020.84
2017-04-03T10:22:20.117Z,1020.84
2017-04-03T10:23:21.385Z,1020.84
2017-04-03T10:24:22.653Z,1020.83
2017-04-03T10:25:23.922Z,1020.86
2017-04-03T10:26:25.151Z,1020.82
2017-04-03T10:27:26.466Z,1020.84
2017-04-03T10:28:27.709Z,1020.85
2017-04-03T10:29:28.948Z,1020.74
2017-04-03T10:30:30.187Z,1020.8
2017-04-03T10:31:31.434Z,1020.78
2017-04-03T10:32:32.934Z,1020.79
2017-04-03T10:33:34.288Z,1020.75
2017-04-03T10:34:35.533Z,1020.8
2017-04-03T10:35:36.788Z,1020.72
2017-04-03T10:36:38.089Z,1020.73
2017-04-03T10:37:39.294Z,1020.7
2017-04-03T10:38:40.654Z,1020.69
2017-04-03T10:39:41.918Z,1020.71
2017-04-03T10:40:43.161Z,1020.73
2017-04-03T10:41:44.397Z,1020.69
2017-04-03T10:42:45.646Z,1020.68
2017-04-03T10:43:46.973Z,1020.74
2017-04-03T10:44:48.295Z,1020.71
2017-04-03T10:45:49.637Z,1020.72
2017-04-03T10:46:50.876Z,1020.69
2017-04-03T10:47:52.152Z,1020.73
2017-04-03T10:48:53.515Z,1020.71
2017-04-03T10:49:54.831Z,1020.68
2017-04-03T10:50:56.080Z,1020.66
2017-04-03T10:51:57.344Z,1020.63
2017-04-03T10:52:58.569Z,1020.61
2017-04-03T10:53:59.822Z,1020.58
2017-04-03T10:55:01.188Z,1020.59
2017-04-03T10:56:02.470Z,1020.53
2017-04-03T10:57:03.723Z,1020.55
2017-04-03T10:58:04.963Z,1020.5
2017-04-03T10:59:06.206Z,1020.48
2017-04-03T11:00:07.443Z,1020.43
2017-04-03T11:01:08.726Z,1020.44
2017-04-03T11:02:09.967Z,1020.45
2017-04-03T11:03:11.236Z,1020.48
2017-04-03T11:04:12.449Z,1020.43
2017-04-03T11:05:13.720Z,1020.42
2017-04-03T11:06:14.939Z,1020.43
2017-04-03T11:07:16.276Z,1020.35
2017-04-03T11:08:17.510Z,1020.38
2017-04-03T11:09:18.756Z,1020.37
2017-04-03T11:10:20.045Z,1020.36
2017-04-03T11:11:21.266Z,1020.33
2017-04-03T11:12:22.517Z,1020.29
2017-04-03T11:13:23.739Z,1020.28
2017-04-03T11:14:25.051Z,1020.35
2017-04-03T11:15:26.310Z,1020.34
2017-04-03T11:16:27.673Z,1020.36
2017-04-03T11:17:28.924Z,1020.35
2017-04-03T11:18:30.171Z,1020.37
2017-04-03T11:19:31.410Z,1020.36
2017-04-03T11:20:32.745Z,1020.34
2017-04-03T11:21:34.009Z,1020.35
2017-04-03T11:22:35.237Z,1020.33
2017-04-03T11:23:36.474Z,1020.26
2017-04-03T11:24:37.727Z,1020.28
2017-04-03T11:25:38.992Z,1020.26
2017-04-03T11:26:40.241Z,1020.28
2017-04-03T11:27:41.474Z,1020.27
2017-04-03T11:28:42.772Z,1020.25
2017-04-03T11:29:44.077Z,1020.31
2017-04-03T11:30:45.316Z,1020.26
2017-04-03T11:31:46.565Z,1020.3
2017-04-03T11:32:47.817Z,1020.26
2017-04-03T11:33:49.054Z,1020.23
2017-04-03T11:34:50.363Z,1020.32
2017-04-03T11:35:51.613Z,1020.25
2017-04-03T11:36:52.870Z,1020.24
2017-04-03T11:37:54.109Z,1020.21
2017-04-03T11:38:55.348Z,1020.25
2017-04-03T11:39:56.611Z,1020.18
2017-04-03T11:40:57.880Z,1020.21
2017-04-03T11:41:59.127Z,1020.19
2017-04-03T11:43:00.368Z,1020.2
2017-04-03T11:44:01.615Z,1020.16
2017-04-03T11:45:02.909Z,1020.2
2017-04-03T11:46:04.182Z,1020.19
2017-04-03T11:47:05.477Z,1020.17
2017-04-03T11:48:06.685Z,1020.17
2017-04-03T11:49:07.922Z,1020.18
2017-04-03T11:50:09.172Z,1020.17
2017-04-03T11:51:10.412Z,1020.14
2017-04-03T11:52:11.665Z,1020.17
2017-04-03T11:53:12.895Z,1020.09
2017-04-03T11:54:14.156Z,1020.11
2017-04-03T11:55:15.395Z,1020.11
2017-04-03T11:56:16.664Z,1020.1
2017-04-03T11:57:17.915Z,1020.07
2017-04-03T11:58:19.183Z,1020.02
2017-04-03T11:59:20.451Z,1020.07
2017-04-03T12:00:21.702Z,1020.03
2017-04-03T12:01:22.955Z,1020.02
2017-04-03T12:02:24.192Z,1020
2017-04-03T12:03:25.452Z,1020.04
2017-04-03T12:04:26.695Z,1019.99
2017-04-03T12:05:27.957Z,1020.02
2017-04-03T12:06:29.226Z,1019.99
2017-04-03T12:07:30.655Z,1019.96
2017-04-03T12:08:31.936Z,1019.98
2017-04-03T12:09:33.185Z,1019.99
2017-04-03T12:10:34.560Z,1019.97
2017-04-03T12:11:35.823Z,1020.04
2017-04-03T12:12:37.061Z,1019.99
2017-04-03T12:13:38.354Z,1019.97
2017-04-03T12:14:39.589Z,1019.97
2017-04-03T12:15:40.842Z,1019.92
2017-04-03T12:16:42.102Z,1019.9
2017-04-03T12:17:43.337Z,1019.9
2017-04-03T12:18:44.604Z,1019.86
2017-04-03T12:19:45.847Z,1019.91
2017-04-03T12:20:47.096Z,1019.85
2017-04-03T12:21:48.555Z,1019.87
2017-04-03T12:22:49.794Z,1019.85
2017-04-03T12:23:51.032Z,1019.87